createdAt,value
2023-02-15T00:01:51.105Z,4.21
2023-02-15T00:04:46.484Z,4.24
2023-02-15T00:07:18.843Z,4.22
2023-02-15T00:09:49.906Z,4.20
2023-02-15T00:12:22.480Z,3.84
2023-02-15T00:14:52.528Z,3.86
2023-02-15T00:17:22.627Z,4.12
2023-02-15T00:19:53.022Z,4.11
2023-02-15T00:22:23.869Z,4.10
2023-02-15T00:24:54.307Z,4.10
2023-02-15T00:27:27.343Z,4.09
2023-02-15T00:29:57.562Z,4.09
2023-02-15T00:32:27.617Z,4.08
2023-02-15T00:34:57.615Z,4.05
2023-02-15T00:37:28.022Z,4.01
2023-02-15T00:39:58.523Z,3.99
2023-02-15T00:42:31.576Z,3.79
2023-02-15T00:45:01.462Z,3.95
2023-02-15T00:47:32.257Z,3.93
2023-02-15T00:50:04.351Z,3.95
2023-02-15T00:52:34.291Z,3.96
2023-02-15T00:55:07.013Z,3.94
2023-02-15T00:57:39.651Z,3.97
2023-02-15T01:00:11.270Z,3.95
2023-02-15T01:02:41.355Z,3.94
2023-02-15T01:05:11.400Z,3.90
2023-02-15T01:07:41.413Z,3.84
2023-02-15T01:10:12.040Z,3.86
2023-02-15T01:12:44.782Z,3.82
2023-02-15T01:15:14.691Z,3.84
2023-02-15T01:17:46.885Z,3.82
2023-02-15T01:20:16.979Z,3.83
2023-02-15T01:22:47.214Z,3.76
2023-02-15T01:25:17.210Z,3.73
2023-02-15T01:27:50.106Z,3.77
2023-02-15T01:30:20.605Z,3.81
2023-02-15T01:32:51.238Z,3.82
2023-02-15T01:35:21.357Z,3.85
2023-02-15T01:37:51.535Z,3.84
2023-02-15T01:40:23.619Z,3.84
2023-02-15T01:42:57.945Z,3.84
2023-02-15T01:45:28.877Z,3.84
2023-02-15T01:48:04.133Z,3.84
2023-02-15T01:50:37.180Z,3.83
2023-02-15T01:53:19.583Z,3.85
2023-02-15T01:55:54.212Z,3.83
2023-02-15T01:58:30.182Z,3.76
2023-02-15T02:01:04.608Z,3.77
2023-02-15T02:03:39.470Z,3.72
2023-02-15T02:06:09.440Z,3.68
2023-02-15T02:08:39.648Z,3.63
2023-02-15T02:11:14.298Z,3.66
2023-02-15T02:13:49.032Z,3.61
2023-02-15T02:16:25.819Z,3.60
2023-02-15T02:19:21.060Z,3.58
2023-02-15T02:22:26.364Z,3.57
2023-02-15T02:25:16.375Z,3.57
2023-02-15T02:27:51.829Z,3.56
2023-02-15T02:30:53.092Z,3.54
2023-02-15T02:33:47.851Z,3.54
2023-02-15T02:36:24.015Z,3.48
2023-02-15T02:39:07.523Z,3.52
2023-02-15T02:41:46.783Z,3.51
2023-02-15T02:44:24.811Z,3.50
2023-02-15T02:46:57.239Z,3.49
2023-02-15T02:49:41.251Z,3.45
2023-02-15T02:52:42.207Z,3.43
2023-02-15T02:55:17.227Z,3.41
2023-02-15T02:57:55.698Z,3.45
2023-02-15T03:00:29.276Z,3.48
2023-02-15T03:03:06.413Z,3.49
2023-02-15T03:05:44.306Z,3.47
2023-02-15T03:08:22.932Z,3.43
2023-02-15T03:10:57.077Z,3.40
2023-02-15T03:13:28.295Z,3.43
2023-02-15T03:16:12.893Z,3.40
2023-02-15T03:18:45.056Z,3.43
2023-02-15T03:21:23.288Z,3.42
2023-02-15T03:23:58.143Z,3.44
2023-02-15T03:26:29.993Z,3.45
2023-02-15T03:29:04.281Z,3.48
2023-02-15T03:31:39.111Z,3.44
2023-02-15T03:34:14.900Z,3.41
2023-02-15T03:36:51.131Z,3.40
2023-02-15T03:39:29.497Z,3.41
2023-02-15T03:42:03.849Z,3.45
2023-02-15T03:44:35.991Z,3.52
2023-02-15T03:47:10.442Z,3.49
2023-02-15T03:49:46.687Z,3.54
2023-02-15T03:52:18.645Z,3.54
2023-02-15T03:54:49.849Z,3.54
2023-02-15T03:57:36.153Z,3.50
2023-02-15T04:00:25.744Z,3.51
2023-02-15T04:03:11.667Z,3.48
2023-02-15T04:05:42.392Z,3.51
2023-02-15T04:08:15.790Z,3.52
2023-02-15T04:10:57.232Z,3.48
2023-02-15T04:13:36.702Z,3.47
2023-02-15T04:16:05.596Z,3.42
2023-02-15T04:18:51.332Z,3.44
2023-02-15T04:21:34.764Z,3.39
2023-02-15T04:24:20.321Z,3.30
2023-02-15T04:26:53.836Z,3.38
2023-02-15T04:29:24.492Z,3.38
2023-02-15T04:31:55.713Z,3.29
2023-02-15T04:34:26.301Z,3.10
2023-02-15T04:36:56.304Z,3.33
2023-02-15T04:39:28.864Z,3.35
2023-02-15T04:41:58.761Z,3.38
2023-02-15T04:44:28.790Z,3.30
2023-02-15T04:46:58.878Z,3.32
2023-02-15T04:49:28.808Z,3.14
2023-02-15T04:51:58.741Z,3.26
2023-02-15T04:54:31.389Z,3.25
2023-02-15T04:57:01.326Z,3.23
2023-02-15T04:59:34.907Z,3.24
2023-02-15T05:02:05.008Z,3.23
2023-02-15T05:04:35.230Z,3.22
2023-02-15T05:07:07.705Z,3.16
2023-02-15T05:09:43.145Z,3.14
2023-02-15T05:12:19.731Z,3.15
2023-02-15T05:14:51.779Z,3.15
2023-02-15T05:17:21.741Z,3.13
2023-02-15T05:19:51.849Z,3.10
2023-02-15T05:22:21.952Z,3.06
2023-02-15T05:25:07.098Z,3.09
2023-02-15T05:28:15.969Z,2.90
2023-02-15T05:30:46.836Z,2.94
2023-02-15T05:33:21.842Z,2.89
2023-02-15T05:35:54.865Z,3.00
2023-02-15T05:38:25.173Z,3.00
2023-02-15T05:41:00.465Z,3.00
2023-02-15T05:43:31.961Z,2.99
2023-02-15T05:46:15.657Z,2.98
2023-02-15T05:48:48.722Z,3.08
2023-02-15T05:51:20.877Z,3.02
2023-02-15T05:53:52.506Z,3.12
2023-02-15T05:56:25.916Z,2.98
2023-02-15T05:58:57.571Z,3.06
2023-02-15T06:01:27.573Z,2.99
2023-02-15T06:03:57.843Z,3.02
2023-02-15T06:06:27.705Z,3.00
2023-02-15T06:08:57.549Z,2.97
2023-02-15T06:11:30.109Z,2.96
2023-02-15T06:14:00.114Z,2.97
2023-02-15T06:16:30.080Z,2.96
2023-02-15T06:19:00.666Z,2.92
2023-02-15T06:21:30.621Z,2.96
2023-02-15T06:24:00.783Z,2.93
2023-02-15T06:26:33.810Z,2.95
2023-02-15T06:29:04.281Z,2.94
2023-02-15T06:31:34.436Z,2.92
2023-02-15T06:34:05.280Z,2.93
2023-02-15T06:36:35.645Z,2.88
2023-02-15T06:39:06.035Z,2.83
2023-02-15T06:41:38.714Z,2.88
2023-02-15T06:44:08.867Z,2.85
2023-02-15T06:46:39.468Z,2.82
2023-02-15T06:49:10.038Z,2.82
2023-02-15T06:51:40.137Z,2.82
2023-02-15T06:54:10.104Z,2.80
2023-02-15T06:56:43.175Z,2.68
2023-02-15T06:59:13.409Z,2.75
2023-02-15T07:01:43.620Z,2.67
2023-02-15T07:04:13.739Z,2.75
2023-02-15T07:06:43.728Z,2.69
2023-02-15T07:09:13.804Z,2.74
2023-02-15T07:11:58.901Z,2.80
2023-02-15T07:14:29.137Z,2.80
2023-02-15T07:16:59.088Z,2.80
2023-02-15T07:19:29.166Z,2.78
2023-02-15T07:21:59.131Z,2.80
2023-02-15T07:24:29.450Z,2.83
2023-02-15T07:27:02.070Z,2.89
2023-02-15T07:29:31.940Z,2.93
2023-02-15T07:32:07.183Z,3.00
2023-02-15T07:34:37.295Z,3.08
2023-02-15T07:37:07.409Z,3.06
2023-02-15T07:39:37.410Z,3.12
2023-02-15T07:42:09.936Z,3.16
2023-02-15T07:44:40.793Z,3.25
2023-02-15T07:47:13.988Z,3.32
2023-02-15T07:49:45.104Z,3.34
2023-02-15T07:52:15.109Z,3.28
2023-02-15T07:54:44.915Z,3.33
2023-02-15T07:57:17.421Z,3.43
2023-02-15T07:59:47.278Z,3.29
2023-02-15T08:02:18.465Z,3.47
2023-02-15T08:04:48.528Z,3.50
2023-02-15T08:07:18.628Z,3.58
2023-02-15T08:09:48.558Z,3.59
2023-02-15T08:12:21.064Z,3.63
2023-02-15T08:14:51.088Z,3.66
2023-02-15T08:17:21.104Z,3.75
2023-02-15T08:19:51.168Z,3.74
2023-02-15T08:22:21.161Z,3.86
2023-02-15T08:24:51.364Z,3.89
2023-02-15T08:27:27.807Z,3.98
2023-02-15T08:29:57.753Z,4.05
2023-02-15T08:32:27.761Z,4.01
2023-02-15T08:34:57.835Z,4.10
2023-02-15T08:37:27.820Z,4.11
2023-02-15T08:39:57.843Z,4.20
2023-02-15T08:42:31.276Z,4.32
2023-02-15T08:45:01.240Z,4.43
2023-02-15T08:47:31.494Z,4.48
2023-02-15T08:50:01.763Z,4.53
2023-02-15T08:52:32.013Z,4.61
2023-02-15T08:55:02.121Z,4.70
2023-02-15T08:57:34.782Z,4.61
2023-02-15T09:00:05.846Z,4.75
2023-02-15T09:02:36.352Z,4.74
2023-02-15T09:05:06.790Z,4.77
2023-02-15T09:07:36.840Z,4.81
2023-02-15T09:10:07.326Z,4.88
2023-02-15T09:12:39.927Z,4.98
2023-02-15T09:15:11.970Z,5.03
2023-02-15T09:17:41.977Z,4.95
2023-02-15T09:20:13.153Z,4.91
2023-02-15T09:22:43.233Z,4.83
2023-02-15T09:25:14.657Z,4.82
2023-02-15T09:27:47.580Z,4.79
2023-02-15T09:30:18.171Z,4.73
2023-02-15T09:32:48.357Z,4.75
2023-02-15T09:35:18.487Z,4.77
2023-02-15T09:37:48.501Z,4.83
2023-02-15T09:40:21.457Z,4.90
2023-02-15T09:43:16.644Z,5.00
2023-02-15T09:46:01.261Z,5.13
2023-02-15T09:48:54.329Z,5.19
2023-02-15T09:52:00.079Z,5.33
2023-02-15T09:54:48.683Z,5.37
2023-02-15T09:57:28.566Z,5.51
2023-02-15T10:00:10.453Z,5.39
2023-02-15T10:03:00.370Z,5.46
2023-02-15T10:05:42.675Z,5.31
2023-02-15T10:08:44.676Z,5.38
2023-02-15T10:11:38.503Z,5.52
2023-02-15T10:14:22.646Z,5.62
2023-02-15T10:17:05.968Z,5.76
2023-02-15T10:19:44.904Z,5.80
2023-02-15T10:22:31.919Z,5.80
2023-02-15T10:25:18.867Z,5.88
2023-02-15T10:27:51.232Z,5.96
2023-02-15T10:30:27.884Z,6.06
2023-02-15T10:33:04.249Z,6.10
2023-02-15T10:35:48.201Z,6.04
2023-02-15T10:38:28.874Z,6.04
2023-02-15T10:41:12.912Z,6.19
2023-02-15T10:44:00.670Z,6.29
2023-02-15T10:46:54.077Z,6.34
2023-02-15T10:49:43.426Z,6.27
2023-02-15T10:52:30.406Z,6.20
2023-02-15T10:55:11.434Z,6.12
2023-02-15T10:57:50.647Z,6.12
2023-02-15T11:00:30.051Z,6.14
2023-02-15T11:03:16.605Z,6.28
2023-02-15T11:06:00.720Z,6.42
2023-02-15T11:08:35.611Z,6.55
2023-02-15T11:11:09.337Z,6.68
2023-02-15T11:13:46.936Z,6.71
2023-02-15T11:16:20.421Z,6.76
2023-02-15T11:18:57.362Z,6.82
2023-02-15T11:21:33.567Z,6.83
2023-02-15T11:24:04.076Z,6.86
2023-02-15T11:26:38.382Z,6.97
2023-02-15T11:29:12.380Z,7.07
2023-02-15T11:31:48.694Z,7.17
2023-02-15T11:34:26.125Z,7.07
2023-02-15T11:37:02.424Z,7.21
2023-02-15T11:39:34.817Z,7.30
2023-02-15T11:42:10.577Z,7.19
2023-02-15T11:44:45.388Z,7.38
2023-02-15T11:47:15.815Z,7.40
2023-02-15T11:49:45.775Z,7.37
2023-02-15T11:52:21.724Z,7.41
2023-02-15T11:54:54.935Z,7.48
2023-02-15T11:57:30.661Z,7.53
2023-02-15T12:00:06.046Z,7.55
2023-02-15T12:02:41.204Z,7.66
2023-02-15T12:05:20.149Z,7.73
2023-02-15T12:07:59.039Z,7.75
2023-02-15T12:10:32.229Z,7.71
2023-02-15T12:13:14.859Z,7.72
2023-02-15T12:15:49.933Z,7.74
2023-02-15T12:18:28.512Z,7.73
2023-02-15T12:21:04.530Z,7.85
2023-02-15T12:23:39.465Z,7.95
2023-02-15T12:26:09.606Z,8.01
2023-02-15T12:28:43.282Z,8.06
2023-02-15T12:31:24.884Z,8.14
2023-02-15T12:33:58.417Z,8.18
2023-02-15T12:36:32.874Z,8.17
2023-02-15T12:39:22.332Z,8.15
2023-02-15T12:42:09.095Z,8.09
2023-02-15T12:44:41.304Z,8.09
2023-02-15T12:47:28.977Z,8.15
2023-02-15T12:50:17.941Z,8.15
2023-02-15T12:52:51.343Z,8.19
2023-02-15T12:55:30.917Z,8.21
2023-02-15T12:58:12.374Z,8.19
2023-02-15T13:00:42.874Z,8.30
2023-02-15T13:03:21.396Z,8.35
2023-02-15T13:05:55.667Z,8.17
2023-02-15T13:08:29.604Z,8.34
2023-02-15T13:11:05.819Z,8.34
2023-02-15T13:13:39.598Z,8.38
2023-02-15T13:16:15.364Z,8.36
2023-02-15T13:18:48.554Z,8.48
2023-02-15T13:21:22.289Z,8.47
2023-02-15T13:23:57.962Z,8.52
2023-02-15T13:26:36.425Z,8.53
2023-02-15T13:29:12.462Z,8.58
2023-02-15T13:31:43.734Z,8.68
2023-02-15T13:34:20.196Z,8.70
2023-02-15T13:36:58.114Z,8.67
2023-02-15T13:39:34.208Z,8.67
2023-02-15T13:42:24.365Z,8.70
2023-02-15T13:45:13.099Z,8.74
2023-02-15T13:47:54.102Z,8.78
2023-02-15T13:50:46.279Z,8.80
2023-02-15T13:53:31.398Z,8.81
2023-02-15T13:56:09.379Z,8.71
2023-02-15T13:59:07.004Z,8.80
2023-02-15T14:01:44.575Z,8.78
2023-02-15T14:04:38.433Z,8.79
2023-02-15T14:07:22.599Z,8.76
2023-02-15T14:10:06.644Z,8.78
2023-02-15T14:12:47.792Z,8.74
2023-02-15T14:15:46.653Z,8.76
2023-02-15T14:18:43.864Z,8.75
2023-02-15T14:21:19.983Z,8.72
2023-02-15T14:24:04.731Z,8.73
2023-02-15T14:26:44.060Z,8.70
2023-02-15T14:29:24.668Z,8.45
2023-02-15T14:32:01.538Z,8.79
2023-02-15T14:34:40.801Z,8.88
2023-02-15T14:37:14.586Z,9.12
2023-02-15T14:40:04.038Z,9.22
2023-02-15T14:42:42.902Z,9.23
2023-02-15T14:45:23.179Z,9.22
2023-02-15T14:48:01.741Z,9.35
2023-02-15T14:50:45.884Z,9.27
2023-02-15T14:53:39.555Z,9.24
2023-02-15T14:56:25.513Z,9.19
2023-02-15T14:59:23.505Z,9.09
2023-02-15T15:01:59.429Z,9.00
2023-02-15T15:04:36.444Z,8.96
2023-02-15T15:07:16.456Z,8.95
2023-02-15T15:09:49.853Z,8.89
2023-02-15T15:12:44.224Z,8.82
2023-02-15T15:15:36.210Z,8.66
2023-02-15T15:18:07.533Z,8.65
2023-02-15T15:20:51.826Z,8.75
2023-02-15T15:23:42.154Z,8.71
2023-02-15T15:26:30.329Z,8.68
2023-02-15T15:29:02.710Z,8.68
2023-02-15T15:31:45.400Z,8.60
2023-02-15T15:34:31.904Z,8.59
2023-02-15T15:37:34.491Z,8.57
2023-02-15T15:40:44.716Z,8.54
2023-02-15T15:43:41.748Z,8.43
2023-02-15T15:46:26.048Z,8.34
2023-02-15T15:48:56.555Z,8.28
2023-02-15T15:51:34.210Z,8.16
2023-02-15T15:54:05.694Z,7.91
2023-02-15T15:56:40.697Z,8.09
2023-02-15T15:59:18.591Z,8.10
2023-02-15T16:01:50.933Z,8.04
2023-02-15T16:04:30.943Z,7.98
2023-02-15T16:07:01.376Z,7.92
2023-02-15T16:09:31.906Z,7.85
2023-02-15T16:12:06.474Z,7.80
2023-02-15T16:14:40.487Z,7.72
2023-02-15T16:17:20.336Z,7.63
2023-02-15T16:19:53.327Z,7.46
2023-02-15T16:22:26.387Z,7.42
2023-02-15T16:25:19.108Z,7.43
2023-02-15T16:27:52.743Z,7.34
2023-02-15T16:30:27.547Z,7.19
2023-02-15T16:33:06.618Z,7.21
2023-02-15T16:35:37.675Z,7.17
2023-02-15T16:38:08.445Z,7.12
2023-02-15T16:40:53.531Z,7.11
2023-02-15T16:43:30.459Z,7.08
2023-02-15T16:46:08.252Z,7.06
2023-02-15T16:48:45.460Z,6.99
2023-02-15T16:51:26.454Z,6.93
2023-02-15T16:53:59.411Z,6.90
2023-02-15T16:56:31.893Z,6.90
2023-02-15T16:59:05.594Z,6.86
2023-02-15T17:01:36.774Z,6.83
2023-02-15T17:04:25.717Z,6.81
2023-02-15T17:07:02.898Z,6.66
2023-02-15T17:09:33.209Z,6.74
2023-02-15T17:12:04.040Z,6.77
2023-02-15T17:14:42.889Z,6.78
2023-02-15T17:17:18.136Z,6.78
2023-02-15T17:19:53.476Z,6.77
2023-02-15T17:22:27.948Z,6.76
2023-02-15T17:25:04.038Z,6.74
2023-02-15T17:27:36.318Z,6.74
2023-02-15T17:30:20.367Z,6.71
2023-02-15T17:32:57.690Z,6.59
2023-02-15T17:35:28.751Z,6.59
2023-02-15T17:38:07.869Z,6.65
2023-02-15T17:40:39.430Z,6.50
2023-02-15T17:43:09.337Z,6.57
2023-02-15T17:45:48.253Z,6.57
2023-02-15T17:48:24.144Z,6.53
2023-02-15T17:50:54.316Z,6.56
2023-02-15T17:53:24.463Z,6.54
2023-02-15T17:55:51.896Z,6.55
2023-02-15T17:58:23.673Z,6.52
2023-02-15T18:01:12.417Z,6.38
2023-02-15T18:03:57.891Z,6.43
2023-02-15T18:06:40.944Z,6.44
2023-02-15T18:09:26.677Z,6.42
2023-02-15T18:11:57.269Z,6.42
2023-02-15T18:14:27.517Z,6.42
2023-02-15T18:17:02.790Z,6.38
2023-02-15T18:19:33.108Z,6.31
2023-02-15T18:22:03.067Z,6.32
2023-02-15T18:24:33.291Z,6.29
2023-02-15T18:27:03.305Z,6.33
2023-02-15T18:29:33.767Z,6.31
2023-02-15T18:32:10.239Z,6.31
2023-02-15T18:34:42.282Z,6.31
2023-02-15T18:37:16.781Z,6.28
2023-02-15T18:39:49.369Z,6.26
2023-02-15T18:42:24.505Z,6.21
2023-02-15T18:44:57.987Z,6.17
2023-02-15T18:47:30.966Z,6.17
2023-02-15T18:50:00.913Z,6.12
2023-02-15T18:52:36.514Z,6.04
2023-02-15T18:55:16.482Z,6.01
2023-02-15T18:57:46.735Z,6.07
2023-02-15T19:00:21.964Z,6.02
2023-02-15T19:02:54.976Z,6.01
2023-02-15T19:05:27.662Z,5.95
2023-02-15T19:07:58.161Z,5.98
2023-02-15T19:10:30.637Z,5.96
2023-02-15T19:13:00.876Z,5.94
2023-02-15T19:15:34.681Z,5.91
2023-02-15T19:18:07.836Z,5.89
2023-02-15T19:20:41.374Z,5.75
2023-02-15T19:23:23.288Z,5.88
2023-02-15T19:25:54.624Z,5.88
2023-02-15T19:28:32.507Z,5.86
2023-02-15T19:31:03.178Z,5.89
2023-02-15T19:33:35.902Z,5.61
2023-02-15T19:36:08.385Z,5.86
2023-02-15T19:38:38.836Z,5.84
2023-02-15T19:41:11.290Z,5.81
2023-02-15T19:43:41.416Z,5.78
2023-02-15T19:46:20.017Z,5.81
2023-02-15T19:48:53.464Z,5.79
2023-02-15T19:51:26.532Z,5.76
2023-02-15T19:53:57.785Z,5.76
2023-02-15T19:56:27.835Z,5.75
2023-02-15T19:58:59.355Z,5.74
2023-02-15T20:01:29.455Z,5.75
2023-02-15T20:04:02.100Z,5.72
2023-02-15T20:06:32.387Z,5.74
2023-02-15T20:09:02.328Z,5.67
2023-02-15T20:11:32.515Z,5.69
2023-02-15T20:14:02.712Z,5.67
2023-02-15T20:16:32.597Z,5.67
2023-02-15T20:19:05.384Z,5.69
2023-02-15T20:21:36.237Z,5.67
2023-02-15T20:24:07.623Z,5.65
2023-02-15T20:26:38.782Z,5.65
2023-02-15T20:29:10.320Z,5.68
2023-02-15T20:31:40.881Z,5.65
2023-02-15T20:34:14.616Z,5.62
2023-02-15T20:36:44.940Z,5.55
2023-02-15T20:39:20.534Z,5.57
2023-02-15T20:41:50.722Z,5.59
2023-02-15T20:44:24.004Z,5.57
2023-02-15T20:46:56.786Z,5.57
2023-02-15T20:49:30.620Z,5.57
2023-02-15T20:52:01.104Z,5.55
2023-02-15T20:54:36.124Z,5.56
2023-02-15T20:57:07.329Z,5.50
2023-02-15T20:59:37.691Z,5.52
2023-02-15T21:02:19.060Z,5.47
2023-02-15T21:04:52.039Z,5.49
2023-02-15T21:07:23.872Z,5.45
2023-02-15T21:09:54.401Z,5.44
2023-02-15T21:12:24.765Z,5.41
2023-02-15T21:14:54.886Z,5.44
2023-02-15T21:17:24.762Z,5.44
2023-02-15T21:19:57.692Z,5.45
2023-02-15T21:22:27.527Z,5.43
2023-02-15T21:24:57.577Z,5.44
2023-02-15T21:27:27.626Z,5.44
2023-02-15T21:29:57.894Z,5.43
2023-02-15T21:32:28.032Z,5.41
2023-02-15T21:35:00.598Z,5.41
2023-02-15T21:37:35.072Z,5.42
2023-02-15T21:40:07.209Z,5.42
2023-02-15T21:42:49.681Z,5.45
2023-02-15T21:45:33.482Z,5.41
2023-02-15T21:48:03.735Z,5.41
2023-02-15T21:50:50.978Z,5.37
2023-02-15T21:53:25.131Z,5.41
2023-02-15T21:55:57.872Z,5.40
2023-02-15T21:58:31.509Z,5.39
2023-02-15T22:01:04.308Z,5.35
2023-02-15T22:03:36.560Z,5.33
2023-02-15T22:06:09.342Z,5.30
2023-02-15T22:08:39.492Z,5.30
2023-02-15T22:11:14.876Z,5.28
2023-02-15T22:13:47.873Z,5.27
2023-02-15T22:16:20.672Z,5.25
2023-02-15T22:18:51.821Z,5.22
2023-02-15T22:21:26.632Z,5.22
2023-02-15T22:23:56.599Z,5.18
2023-02-15T22:26:27.929Z,5.18
2023-02-15T22:28:59.897Z,5.13
2023-02-15T22:31:31.115Z,5.11
2023-02-15T22:34:01.259Z,5.06
2023-02-15T22:36:34.298Z,5.11
2023-02-15T22:39:04.375Z,5.10
2023-02-15T22:41:36.930Z,5.10
2023-02-15T22:44:06.948Z,4.99
2023-02-15T22:46:38.590Z,5.05
2023-02-15T22:49:08.800Z,5.07
2023-02-15T22:51:42.096Z,5.04
2023-02-15T22:54:12.372Z,4.98
2023-02-15T22:56:46.080Z,5.00
2023-02-15T22:59:24.064Z,4.98
2023-02-15T23:01:54.135Z,4.98
2023-02-15T23:04:27.640Z,4.98
2023-02-15T23:07:01.238Z,4.99
2023-02-15T23:09:31.181Z,4.96
2023-02-15T23:12:02.594Z,4.95
2023-02-15T23:14:37.532Z,4.94
2023-02-15T23:17:07.641Z,4.90
2023-02-15T23:19:37.612Z,4.85
2023-02-15T23:22:15.790Z,4.83
2023-02-15T23:24:51.903Z,4.81
2023-02-15T23:27:34.519Z,4.80
2023-02-15T23:30:06.548Z,4.77
2023-02-15T23:32:36.767Z,4.72
2023-02-15T23:35:16.495Z,4.71
2023-02-15T23:37:49.403Z,4.67
2023-02-15T23:40:33.560Z,4.65
2023-02-15T23:43:04.120Z,4.63
2023-02-15T23:45:40.048Z,4.60
2023-02-15T23:48:35.331Z,4.56
2023-02-15T23:51:05.710Z,4.55
2023-02-15T23:53:38.776Z,4.51
2023-02-15T23:56:09.364Z,4.48
2023-02-15T23:58:41.498Z,4.52
